Christian Reinauer — WDA6472 — position and weather

sailwx.info

Track history (hours):
 
Tides and Currents Weather Stations Pressure Air Temp Water Temp Dewpoint Dewpoint Depression Visibility Wind Speed Wind Dir Waves Ship Positions

Christian Reinauer

Owner: REINAUER TRANSPORTATION CO LLC, STATEN ISLAND, NY. More information available from US FCC via Universal Licensing System and Coast Guard Vessel Documentation Center.

Last reported at 2017-Oct-17 03:12 UTC. Time now 2017-Oct-17 08:01 UTC.
Position N 40°50' W 073°46'.

Length 172 m; draft 8 m.

Type: . MMSI: 366832740.

Date/timePositionNaut miles runAvg speedWind from/ knotsBaromVisibWave heightAir tempDewpointWater temp
2017-Oct-17 03:12N 40°50' W 073°46'210.2
2017-Oct-17 02:59N 40°48' W 073°47'5 9.5
2017-Oct-17 02:30N 40°48' W 073°53'3 6.7
2017-Oct-17 02:00N 40°46' W 073°57'4 7.8
2017-Oct-17 01:30N 40°43' W 073°59'5 9.4
2017-Oct-17 01:00N 40°39' W 074°03'4 8.7
2017-Oct-17 00:30N 40°39' W 074°09'3 5.7
2017-Oct-17 00:00N 40°37' W 074°12'3 5.9
2017-Oct-16 23:30N 40°34' W 074°13'3 5.1
2017-Oct-16 23:00N 40°32' W 074°15'0 0.0
2017-Oct-16 21:12N 40°32' W 074°15'0 0.0
2017-Oct-16 21:00N 40°32' W 074°15'1 1.1
2017-Oct-16 20:29N 40°33' W 074°15'3 6.0
2017-Oct-16 19:59N 40°35' W 074°12'3 6.5
2017-Oct-16 19:30N 40°38' W 074°12'1 3.1
2017-Oct-16 19:00N 40°39' W 074°10'2 3.1
2017-Oct-16 18:29N 40°38' W 074°08'0 0.0
2017-Oct-16 17:59N 40°38' W 074°08'0 0.0
2017-Oct-16 17:29N 40°38' W 074°08'0 0.0
2017-Oct-16 16:53N 40°38' W 074°08'0 0.0
2017-Oct-16 16:29N 40°38' W 074°08'0 0.0
2017-Oct-16 15:59N 40°38' W 074°08'0 0.0
2017-Oct-16 15:29N 40°38' W 074°08'0 0.0
2017-Oct-16 14:59N 40°38' W 074°08'0 0.0
2017-Oct-16 13:59N 40°38' W 074°08'0 0.0
2017-Oct-16 13:26N 40°38' W 074°08'0 0.0
2017-Oct-16 12:59N 40°38' W 074°08'0 0.0
2017-Oct-16 12:29N 40°38' W 074°08'0 0.0
2017-Oct-16 11:59N 40°38' W 074°08'0 0.0
2017-Oct-16 11:29N 40°38' W 074°08'0 0.0
2017-Oct-16 10:56N 40°38' W 074°08'0 0.0
2017-Oct-16 10:29N 40°38' W 074°08'0 0.0
2017-Oct-16 09:59N 40°38' W 074°08'0 0.0
2017-Oct-16 09:29N 40°38' W 074°08'0 0.0
2017-Oct-16 08:59N 40°38' W 074°08'0 0.0
2017-Oct-16 08:26N 40°38' W 074°08'0 0.0
2017-Oct-16 07:59N 40°38' W 074°08'0 0.0
2017-Oct-16 07:29N 40°38' W 074°08'0 0.0
2017-Oct-16 06:59N 40°38' W 074°08'0 0.0
2017-Oct-16 06:29N 40°38' W 074°08'0 0.0
2017-Oct-16 05:59N 40°38' W 074°08'0 0.0
2017-Oct-16 05:29N 40°38' W 074°08'0 0.0
2017-Oct-16 04:59N 40°38' W 074°08'0 0.0
2017-Oct-16 04:29N 40°38' W 074°08'0 0.0
2017-Oct-16 03:59N 40°38' W 074°08'0 0.0
2017-Oct-16 03:29N 40°38' W 074°08'0 0.0
2017-Oct-16 02:59N 40°38' W 074°08'0 0.0
2017-Oct-16 02:26N 40°38' W 074°08'0 0.0
2017-Oct-16 01:59N 40°38' W 074°08'0 0.0
2017-Oct-16 01:29N 40°38' W 074°08'0 0.1
2017-Oct-16 00:59N 40°38' W 074°08'0 0.0
2017-Oct-16 00:29N 40°38' W 074°08'0 0.0
2017-Oct-15 23:59N 40°38' W 074°08'0 0.0
2017-Oct-15 23:29N 40°38' W 074°08'0 0.0
2017-Oct-15 22:59N 40°38' W 074°08'0 0.0
2017-Oct-15 22:29N 40°38' W 074°08'0 0.0
2017-Oct-15 21:59N 40°38' W 074°08'0 0.0
2017-Oct-15 21:29N 40°38' W 074°08'0 0.0
2017-Oct-15 20:59N 40°38' W 074°08'0 0.0
2017-Oct-15 20:29N 40°38' W 074°08'0 0.0
2017-Oct-15 19:59N 40°38' W 074°08'0 0.0
2017-Oct-15 19:29N 40°38' W 074°08'0 0.0
2017-Oct-15 18:59N 40°38' W 074°08'0 0.0
2017-Oct-15 18:29N 40°38' W 074°08'0 0.0
2017-Oct-15 17:59N 40°38' W 074°08'0 0.0
2017-Oct-15 17:29N 40°38' W 074°08'0 0.0
2017-Oct-15 16:59N 40°38' W 074°08'0 0.7
2017-Oct-15 16:30N 40°39' W 074°08'3 6.8
2017-Oct-15 16:00N 40°37' W 074°12'4 7.4
2017-Oct-15 15:30N 40°33' W 074°13'2 3.1
2017-Oct-15 14:56N 40°32' W 074°15'1 1.0
2017-Oct-15 14:00N 40°33' W 074°15'3 6.5
2017-Oct-15 13:30N 40°36' W 074°12'3 6.5
2017-Oct-15 13:00N 40°39' W 074°10'4 8.6
2017-Oct-15 12:30N 40°39' W 074°05'5 9.1
2017-Oct-15 12:00N 40°42' W 074°00'510.1
2017-Oct-15 11:30N 40°46' W 073°57'4 8.9
2017-Oct-15 11:00N 40°48' W 073°51'5 9.3
2017-Oct-15 10:29N 40°51' W 073°46'611.6
2017-Oct-15 09:57N 40°54' W 073°39'612.1
2017-Oct-15 09:29N 40°57' W 073°33'612.2
2017-Oct-15 08:59N 40°60' W 073°26'3411.7
2017-Oct-15 06:06N 41°07' W 072°42'111.2
2017-Oct-15 06:00N 41°07' W 072°40'610.9
2017-Oct-15 05:29N 41°08' W 072°33'510.7
2017-Oct-15 05:00N 41°10' W 072°27'5 9.6
2017-Oct-15 04:30N 41°11' W 072°21'5 9.5
2017-Oct-15 04:00N 41°12' W 072°14'5 9.2
2017-Oct-15 03:30N 41°13' W 072°09'6 8.4
2017-Oct-15 02:46N 41°14' W 072°00'39 9.8
2017-Oct-14 22:44N 41°38' W 071°18'311.6
2017-Oct-14 22:30N 41°40' W 071°19'511.0
2017-Oct-14 22:00N 41°45' W 071°22'3 4.5
2017-Oct-14 21:18N 41°48' W 071°24'0 0.0
2017-Oct-14 19:29N 41°48' W 071°24'0 0.0
2017-Oct-14 13:23N 41°48' W 071°24'0 0.0
2017-Oct-14 11:41N 41°48' W 071°24'0 0.0
2017-Oct-14 11:29N 41°48' W 071°24'0 0.0
2017-Oct-14 10:59N 41°48' W 071°24'0 0.0
2017-Oct-13 19:45N 41°48' W 071°24'0 0.0
2017-Oct-13 19:23N 41°48' W 071°24'0 0.0
2017-Oct-13 18:53N 41°48' W 071°24'0 0.0
2017-Oct-13 18:29N 41°48' W 071°24'0 0.1
2017-Oct-13 17:58N 41°48' W 071°24'2 3.6
2017-Oct-13 17:30N 41°47' W 071°22'4 8.7
2017-Oct-13 17:00N 41°43' W 071°20'41 9.5
2017-Oct-13 12:41N 41°14' W 071°60'712.8
2017-Oct-13 12:10N 41°14' W 072°08'612.9
2017-Oct-13 11:41N 41°12' W 072°16'212.8
2017-Oct-13 11:30N 41°11' W 072°19'612.3
2017-Oct-13 11:00N 41°09' W 072°27'611.7
2017-Oct-13 10:30N 41°08' W 072°34'611.5
2017-Oct-13 10:00N 41°07' W 072°42'4910.9
2017-Oct-13 05:32N 40°53' W 073°44'111.9
2017-Oct-13 05:25N 40°52' W 073°45'510.7
2017-Oct-13 05:00N 40°48' W 073°48'510.5
2017-Oct-13 04:30N 40°47' W 073°55'4 8.8
2017-Oct-13 04:00N 40°44' W 073°58'5 9.5
2017-Oct-13 03:30N 40°40' W 074°03'5 9.3
2017-Oct-13 03:00N 40°39' W 074°08'3 6.9
2017-Oct-13 02:30N 40°37' W 074°12'3 5.7
2017-Oct-13 02:00N 40°34' W 074°13'3 5.4
2017-Oct-13 01:30N 40°32' W 074°15'0 0.0
2017-Oct-12 22:04N 40°32' W 074°15'0 0.0
2017-Oct-12 21:58N 40°32' W 074°15'0 0.0
2017-Oct-12 21:25N 40°32' W 074°15'0 0.0
2017-Oct-12 20:55N 40°32' W 074°15'0 0.0
2017-Oct-12 20:25N 40°32' W 074°15'0 0.0
2017-Oct-12 19:31N 40°32' W 074°15'0 0.0
2017-Oct-12 19:25N 40°32' W 074°15'0 0.0
2017-Oct-12 18:52N 40°32' W 074°15'0 0.0
2017-Oct-12 18:22N 40°32' W 074°15'0 0.0
2017-Oct-12 17:49N 40°32' W 074°15'0 0.0
2017-Oct-12 16:28N 40°32' W 074°15'0 0.0
2017-Oct-12 15:40N 40°32' W 074°15'0 0.0
2017-Oct-12 13:52N 40°32' W 074°15'0 0.0
2017-Oct-12 05:37N 40°32' W 074°15'0 0.0
2017-Oct-12 05:28N 40°32' W 074°15'0 0.0
2017-Oct-12 04:58N 40°32' W 074°15'0 0.0
2017-Oct-12 04:28N 40°32' W 074°15'0 0.0
2017-Oct-12 03:58N 40°32' W 074°15'0 0.0
2017-Oct-12 03:25N 40°32' W 074°15'0 0.0
2017-Oct-12 02:58N 40°32' W 074°15'0 0.0
2017-Oct-12 02:28N 40°32' W 074°15'0 0.0
2017-Oct-12 01:58N 40°32' W 074°15'0 0.0
2017-Oct-12 01:28N 40°32' W 074°15'0 0.0
2017-Oct-12 01:00N 40°32' W 074°15'1 1.6
2017-Oct-12 00:24N 40°33' W 074°15'3 8.2
2017-Oct-12 00:00N 40°36' W 074°12'3 6.7
2017-Oct-11 23:30N 40°39' W 074°09'4 7.5
2017-Oct-11 23:00N 40°39' W 074°04'5 9.6
2017-Oct-11 22:30N 40°42' W 073°60'612.2
2017-Oct-11 22:00N 40°47' W 073°55'510.3
2017-Oct-11 21:29N 40°48' W 073°48'610.8
2017-Oct-11 20:55N 40°53' W 073°43'611.8
2017-Oct-11 20:23N 40°56' W 073°36'8 0.2
2017-Oct-10 00:24N 40°52' W 073°45'6 9.6
2017-Oct-09 23:48N 40°48' W 073°50'310.2
2017-Oct-09 23:29N 40°48' W 073°54'3 7.1
2017-Oct-09 23:00N 40°45' W 073°58'4 7.6
2017-Oct-09 22:30N 40°42' W 074°00'4 8.7
2017-Oct-09 22:01N 40°39' W 074°04'4 8.2
2017-Oct-09 21:30N 40°39' W 074°09'3 6.4
2017-Oct-09 21:00N 40°36' W 074°12'3 5.9
2017-Oct-09 20:27N 40°33' W 074°14'1 2.2
2017-Oct-09 19:49N 40°32' W 074°15'0 0.0
2017-Oct-09 19:19N 40°32' W 074°15'0 0.0
2017-Oct-09 18:55N 40°32' W 074°15'0 0.0
2017-Oct-09 18:28N 40°32' W 074°15'0 0.0
2017-Oct-09 17:55N 40°32' W 074°15'0 0.0
2017-Oct-09 17:04N 40°32' W 074°15'0 0.0
2017-Oct-09 16:49N 40°32' W 074°15'0 0.0
2017-Oct-09 16:28N 40°32' W 074°15'0 0.0
2017-Oct-09 16:01N 40°32' W 074°15'0 0.0
2017-Oct-09 15:28N 40°32' W 074°15'0 0.0
2017-Oct-09 14:58N 40°32' W 074°15'0 0.0
2017-Oct-09 14:22N 40°32' W 074°15'0 0.0
2017-Oct-09 13:39N 40°32' W 074°15'0 0.0
2017-Oct-09 13:27N 40°32' W 074°15'0 0.0
2017-Oct-09 12:57N 40°32' W 074°15'0 0.0
2017-Oct-09 12:30N 40°32' W 074°15'0 0.0
2017-Oct-09 12:00N 40°32' W 074°15'0 0.0
2017-Oct-09 11:27N 40°32' W 074°15'0 0.0
2017-Oct-09 10:51N 40°32' W 074°15'0 0.0
2017-Oct-09 05:06N 40°32' W 074°15'0 0.0
2017-Oct-09 05:00N 40°32' W 074°15'0 0.0
2017-Oct-09 04:30N 40°32' W 074°15'0 0.0
2017-Oct-09 04:00N 40°32' W 074°15'0 0.0
2017-Oct-09 03:18N 40°32' W 074°15'0 0.0
2017-Oct-09 03:00N 40°32' W 074°15'0 0.0
2017-Oct-09 02:30N 40°32' W 074°15'0 0.0
2017-Oct-09 02:00N 40°32' W 074°15'0 0.0
2017-Oct-09 01:24N 40°32' W 074°15'0 0.0
2017-Oct-09 01:00N 40°32' W 074°15'0 0.0
2017-Oct-09 00:30N 40°32' W 074°15'0 0.0
2017-Oct-08 23:00N 40°32' W 074°15'0 0.0
2017-Oct-08 22:18N 40°32' W 074°15'0 0.0
2017-Oct-08 21:48N 40°32' W 074°15'0 0.0
2017-Oct-08 21:30N 40°32' W 074°15'1 0.9
2017-Oct-08 20:53N 40°33' W 074°15'3 6.8
2017-Oct-08 20:29N 40°35' W 074°13'4 8.4
2017-Oct-08 20:00N 40°39' W 074°11'5 9.5
2017-Oct-08 19:30N 40°39' W 074°05'611.6
2017-Oct-08 19:00N 40°43' W 073°59'611.7
2017-Oct-08 18:31N 40°48' W 073°55'611.1
2017-Oct-08 17:59N 40°48' W 073°47'5311.3
2017-Oct-08 13:20N 41°07' W 072°42'411.8
2017-Oct-08 13:00N 41°08' W 072°37'612.1
2017-Oct-08 12:30N 41°09' W 072°29'611.5
2017-Oct-08 12:00N 41°11' W 072°22'510.6
2017-Oct-08 11:30N 41°12' W 072°15'510.1
2017-Oct-08 11:00N 41°13' W 072°09'37 9.1
2017-Oct-08 06:54N 41°27' W 071°23'1212.0
2017-Oct-08 05:55N 41°39' W 071°19'410.8
2017-Oct-08 05:30N 41°43' W 071°20'4 9.1
2017-Oct-08 05:00N 41°47' W 071°23'1 2.4
2017-Oct-08 04:29N 41°48' W 071°24'  
Track history (hours):
 
Tides and Currents Weather Stations Pressure Air Temp Water Temp Dewpoint Dewpoint Depression Visibility Wind Speed Wind Dir Waves Ship Positions

Christian Reinauer

Owner: REINAUER TRANSPORTATION CO LLC, STATEN ISLAND, NY. More information available from US FCC via Universal Licensing System and Coast Guard Vessel Documentation Center.

Last reported at 2017-Oct-17 03:12 UTC. Time now 2017-Oct-17 08:01 UTC.
Position N 40°50' W 073°46'.

Length 172 m; draft 8 m.

Type: . MMSI: 366832740.

Date/timePositionNaut miles runAvg speedWind from/ knotsBaromVisibWave heightAir tempDewpointWater temp
2017-Oct-17 03:12N 40°50' W 073°46'210.2
2017-Oct-17 02:59N 40°48' W 073°47'5 9.5
2017-Oct-17 02:30N 40°48' W 073°53'3 6.7
2017-Oct-17 02:00N 40°46' W 073°57'4 7.8
2017-Oct-17 01:30N 40°43' W 073°59'5 9.4
2017-Oct-17 01:00N 40°39' W 074°03'4 8.7
2017-Oct-17 00:30N 40°39' W 074°09'3 5.7
2017-Oct-17 00:00N 40°37' W 074°12'3 5.9
2017-Oct-16 23:30N 40°34' W 074°13'3 5.1
2017-Oct-16 23:00N 40°32' W 074°15'0 0.0
2017-Oct-16 21:12N 40°32' W 074°15'0 0.0
2017-Oct-16 21:00N 40°32' W 074°15'1 1.1
2017-Oct-16 20:29N 40°33' W 074°15'3 6.0
2017-Oct-16 19:59N 40°35' W 074°12'3 6.5
2017-Oct-16 19:30N 40°38' W 074°12'1 3.1
2017-Oct-16 19:00N 40°39' W 074°10'2 3.1
2017-Oct-16 18:29N 40°38' W 074°08'0 0.0
2017-Oct-16 17:59N 40°38' W 074°08'0 0.0
2017-Oct-16 17:29N 40°38' W 074°08'0 0.0
2017-Oct-16 16:53N 40°38' W 074°08'0 0.0
2017-Oct-16 16:29N 40°38' W 074°08'0 0.0
2017-Oct-16 15:59N 40°38' W 074°08'0 0.0
2017-Oct-16 15:29N 40°38' W 074°08'0 0.0
2017-Oct-16 14:59N 40°38' W 074°08'0 0.0
2017-Oct-16 13:59N 40°38' W 074°08'0 0.0
2017-Oct-16 13:26N 40°38' W 074°08'0 0.0
2017-Oct-16 12:59N 40°38' W 074°08'0 0.0
2017-Oct-16 12:29N 40°38' W 074°08'0 0.0
2017-Oct-16 11:59N 40°38' W 074°08'0 0.0
2017-Oct-16 11:29N 40°38' W 074°08'0 0.0
2017-Oct-16 10:56N 40°38' W 074°08'0 0.0
2017-Oct-16 10:29N 40°38' W 074°08'0 0.0
2017-Oct-16 09:59N 40°38' W 074°08'0 0.0
2017-Oct-16 09:29N 40°38' W 074°08'0 0.0
2017-Oct-16 08:59N 40°38' W 074°08'0 0.0
2017-Oct-16 08:26N 40°38' W 074°08'0 0.0
2017-Oct-16 07:59N 40°38' W 074°08'0 0.0
2017-Oct-16 07:29N 40°38' W 074°08'0 0.0
2017-Oct-16 06:59N 40°38' W 074°08'0 0.0
2017-Oct-16 06:29N 40°38' W 074°08'0 0.0
2017-Oct-16 05:59N 40°38' W 074°08'0 0.0
2017-Oct-16 05:29N 40°38' W 074°08'0 0.0
2017-Oct-16 04:59N 40°38' W 074°08'0 0.0
2017-Oct-16 04:29N 40°38' W 074°08'0 0.0
2017-Oct-16 03:59N 40°38' W 074°08'0 0.0
2017-Oct-16 03:29N 40°38' W 074°08'0 0.0
2017-Oct-16 02:59N 40°38' W 074°08'0 0.0
2017-Oct-16 02:26N 40°38' W 074°08'0 0.0
2017-Oct-16 01:59N 40°38' W 074°08'0 0.0
2017-Oct-16 01:29N 40°38' W 074°08'0 0.1
2017-Oct-16 00:59N 40°38' W 074°08'0 0.0
2017-Oct-16 00:29N 40°38' W 074°08'0 0.0
2017-Oct-15 23:59N 40°38' W 074°08'0 0.0
2017-Oct-15 23:29N 40°38' W 074°08'0 0.0
2017-Oct-15 22:59N 40°38' W 074°08'0 0.0
2017-Oct-15 22:29N 40°38' W 074°08'0 0.0
2017-Oct-15 21:59N 40°38' W 074°08'0 0.0
2017-Oct-15 21:29N 40°38' W 074°08'0 0.0
2017-Oct-15 20:59N 40°38' W 074°08'0 0.0
2017-Oct-15 20:29N 40°38' W 074°08'0 0.0
2017-Oct-15 19:59N 40°38' W 074°08'0 0.0
2017-Oct-15 19:29N 40°38' W 074°08'0 0.0
2017-Oct-15 18:59N 40°38' W 074°08'0 0.0
2017-Oct-15 18:29N 40°38' W 074°08'0 0.0
2017-Oct-15 17:59N 40°38' W 074°08'0 0.0
2017-Oct-15 17:29N 40°38' W 074°08'0 0.0
2017-Oct-15 16:59N 40°38' W 074°08'0 0.7
2017-Oct-15 16:30N 40°39' W 074°08'3 6.8
2017-Oct-15 16:00N 40°37' W 074°12'4 7.4
2017-Oct-15 15:30N 40°33' W 074°13'2 3.1
2017-Oct-15 14:56N 40°32' W 074°15'1 1.0
2017-Oct-15 14:00N 40°33' W 074°15'3 6.5
2017-Oct-15 13:30N 40°36' W 074°12'3 6.5
2017-Oct-15 13:00N 40°39' W 074°10'4 8.6
2017-Oct-15 12:30N 40°39' W 074°05'5 9.1
2017-Oct-15 12:00N 40°42' W 074°00'510.1
2017-Oct-15 11:30N 40°46' W 073°57'4 8.9
2017-Oct-15 11:00N 40°48' W 073°51'5 9.3
2017-Oct-15 10:29N 40°51' W 073°46'611.6
2017-Oct-15 09:57N 40°54' W 073°39'612.1
2017-Oct-15 09:29N 40°57' W 073°33'612.2
2017-Oct-15 08:59N 40°60' W 073°26'3411.7
2017-Oct-15 06:06N 41°07' W 072°42'111.2
2017-Oct-15 06:00N 41°07' W 072°40'610.9
2017-Oct-15 05:29N 41°08' W 072°33'510.7
2017-Oct-15 05:00N 41°10' W 072°27'5 9.6
2017-Oct-15 04:30N 41°11' W 072°21'5 9.5
2017-Oct-15 04:00N 41°12' W 072°14'5 9.2
2017-Oct-15 03:30N 41°13' W 072°09'6 8.4
2017-Oct-15 02:46N 41°14' W 072°00'39 9.8
2017-Oct-14 22:44N 41°38' W 071°18'311.6
2017-Oct-14 22:30N 41°40' W 071°19'511.0
2017-Oct-14 22:00N 41°45' W 071°22'3 4.5
2017-Oct-14 21:18N 41°48' W 071°24'0 0.0
2017-Oct-14 19:29N 41°48' W 071°24'0 0.0
2017-Oct-14 13:23N 41°48' W 071°24'0 0.0
2017-Oct-14 11:41N 41°48' W 071°24'0 0.0
2017-Oct-14 11:29N 41°48' W 071°24'0 0.0
2017-Oct-14 10:59N 41°48' W 071°24'0 0.0
2017-Oct-13 19:45N 41°48' W 071°24'0 0.0
2017-Oct-13 19:23N 41°48' W 071°24'0 0.0
2017-Oct-13 18:53N 41°48' W 071°24'0 0.0
2017-Oct-13 18:29N 41°48' W 071°24'0 0.1
2017-Oct-13 17:58N 41°48' W 071°24'2 3.6
2017-Oct-13 17:30N 41°47' W 071°22'4 8.7
2017-Oct-13 17:00N 41°43' W 071°20'41 9.5
2017-Oct-13 12:41N 41°14' W 071°60'712.8
2017-Oct-13 12:10N 41°14' W 072°08'612.9
2017-Oct-13 11:41N 41°12' W 072°16'212.8
2017-Oct-13 11:30N 41°11' W 072°19'612.3
2017-Oct-13 11:00N 41°09' W 072°27'611.7
2017-Oct-13 10:30N 41°08' W 072°34'611.5
2017-Oct-13 10:00N 41°07' W 072°42'4910.9
2017-Oct-13 05:32N 40°53' W 073°44'111.9
2017-Oct-13 05:25N 40°52' W 073°45'510.7
2017-Oct-13 05:00N 40°48' W 073°48'510.5
2017-Oct-13 04:30N 40°47' W 073°55'4 8.8
2017-Oct-13 04:00N 40°44' W 073°58'5 9.5
2017-Oct-13 03:30N 40°40' W 074°03'5 9.3
2017-Oct-13 03:00N 40°39' W 074°08'3 6.9
2017-Oct-13 02:30N 40°37' W 074°12'3 5.7
2017-Oct-13 02:00N 40°34' W 074°13'3 5.4
2017-Oct-13 01:30N 40°32' W 074°15'0 0.0
2017-Oct-12 22:04N 40°32' W 074°15'0 0.0
2017-Oct-12 21:58N 40°32' W 074°15'0 0.0
2017-Oct-12 21:25N 40°32' W 074°15'0 0.0
2017-Oct-12 20:55N 40°32' W 074°15'0 0.0
2017-Oct-12 20:25N 40°32' W 074°15'0 0.0
2017-Oct-12 19:31N 40°32' W 074°15'0 0.0
2017-Oct-12 19:25N 40°32' W 074°15'0 0.0
2017-Oct-12 18:52N 40°32' W 074°15'0 0.0
2017-Oct-12 18:22N 40°32' W 074°15'0 0.0
2017-Oct-12 17:49N 40°32' W 074°15'0 0.0
2017-Oct-12 16:28N 40°32' W 074°15'0 0.0
2017-Oct-12 15:40N 40°32' W 074°15'0 0.0
2017-Oct-12 13:52N 40°32' W 074°15'0 0.0
2017-Oct-12 05:37N 40°32' W 074°15'0 0.0
2017-Oct-12 05:28N 40°32' W 074°15'0 0.0
2017-Oct-12 04:58N 40°32' W 074°15'0 0.0
2017-Oct-12 04:28N 40°32' W 074°15'0 0.0
2017-Oct-12 03:58N 40°32' W 074°15'0 0.0
2017-Oct-12 03:25N 40°32' W 074°15'0 0.0
2017-Oct-12 02:58N 40°32' W 074°15'0 0.0
2017-Oct-12 02:28N 40°32' W 074°15'0 0.0
2017-Oct-12 01:58N 40°32' W 074°15'0 0.0
2017-Oct-12 01:28N 40°32' W 074°15'0 0.0
2017-Oct-12 01:00N 40°32' W 074°15'1 1.6
2017-Oct-12 00:24N 40°33' W 074°15'3 8.2
2017-Oct-12 00:00N 40°36' W 074°12'3 6.7
2017-Oct-11 23:30N 40°39' W 074°09'4 7.5
2017-Oct-11 23:00N 40°39' W 074°04'5 9.6
2017-Oct-11 22:30N 40°42' W 073°60'612.2
2017-Oct-11 22:00N 40°47' W 073°55'510.3
2017-Oct-11 21:29N 40°48' W 073°48'610.8
2017-Oct-11 20:55N 40°53' W 073°43'611.8
2017-Oct-11 20:23N 40°56' W 073°36'8 0.2
2017-Oct-10 00:24N 40°52' W 073°45'6 9.6
2017-Oct-09 23:48N 40°48' W 073°50'310.2
2017-Oct-09 23:29N 40°48' W 073°54'3 7.1
2017-Oct-09 23:00N 40°45' W 073°58'4 7.6
2017-Oct-09 22:30N 40°42' W 074°00'4 8.7
2017-Oct-09 22:01N 40°39' W 074°04'4 8.2
2017-Oct-09 21:30N 40°39' W 074°09'3 6.4
2017-Oct-09 21:00N 40°36' W 074°12'3 5.9
2017-Oct-09 20:27N 40°33' W 074°14'1 2.2
2017-Oct-09 19:49N 40°32' W 074°15'0 0.0
2017-Oct-09 19:19N 40°32' W 074°15'0 0.0
2017-Oct-09 18:55N 40°32' W 074°15'0 0.0
2017-Oct-09 18:28N 40°32' W 074°15'0 0.0
2017-Oct-09 17:55N 40°32' W 074°15'0 0.0
2017-Oct-09 17:04N 40°32' W 074°15'0 0.0
2017-Oct-09 16:49N 40°32' W 074°15'0 0.0
2017-Oct-09 16:28N 40°32' W 074°15'0 0.0
2017-Oct-09 16:01N 40°32' W 074°15'0 0.0
2017-Oct-09 15:28N 40°32' W 074°15'0 0.0
2017-Oct-09 14:58N 40°32' W 074°15'0 0.0
2017-Oct-09 14:22N 40°32' W 074°15'0 0.0
2017-Oct-09 13:39N 40°32' W 074°15'0 0.0
2017-Oct-09 13:27N 40°32' W 074°15'0 0.0
2017-Oct-09 12:57N 40°32' W 074°15'0 0.0
2017-Oct-09 12:30N 40°32' W 074°15'0 0.0
2017-Oct-09 12:00N 40°32' W 074°15'0 0.0
2017-Oct-09 11:27N 40°32' W 074°15'0 0.0
2017-Oct-09 10:51N 40°32' W 074°15'0 0.0
2017-Oct-09 05:06N 40°32' W 074°15'0 0.0
2017-Oct-09 05:00N 40°32' W 074°15'0 0.0
2017-Oct-09 04:30N 40°32' W 074°15'0 0.0
2017-Oct-09 04:00N 40°32' W 074°15'0 0.0
2017-Oct-09 03:18N 40°32' W 074°15'0 0.0
2017-Oct-09 03:00N 40°32' W 074°15'0 0.0
2017-Oct-09 02:30N 40°32' W 074°15'0 0.0
2017-Oct-09 02:00N 40°32' W 074°15'0 0.0
2017-Oct-09 01:24N 40°32' W 074°15'0 0.0
2017-Oct-09 01:00N 40°32' W 074°15'0 0.0
2017-Oct-09 00:30N 40°32' W 074°15'0 0.0
2017-Oct-08 23:00N 40°32' W 074°15'0 0.0
2017-Oct-08 22:18N 40°32' W 074°15'0 0.0
2017-Oct-08 21:48N 40°32' W 074°15'0 0.0
2017-Oct-08 21:30N 40°32' W 074°15'1 0.9
2017-Oct-08 20:53N 40°33' W 074°15'3 6.8
2017-Oct-08 20:29N 40°35' W 074°13'4 8.4
2017-Oct-08 20:00N 40°39' W 074°11'5 9.5
2017-Oct-08 19:30N 40°39' W 074°05'611.6
2017-Oct-08 19:00N 40°43' W 073°59'611.7
2017-Oct-08 18:31N 40°48' W 073°55'611.1
2017-Oct-08 17:59N 40°48' W 073°47'5311.3
2017-Oct-08 13:20N 41°07' W 072°42'411.8
2017-Oct-08 13:00N 41°08' W 072°37'612.1
2017-Oct-08 12:30N 41°09' W 072°29'611.5
2017-Oct-08 12:00N 41°11' W 072°22'510.6
2017-Oct-08 11:30N 41°12' W 072°15'510.1
2017-Oct-08 11:00N 41°13' W 072°09'37 9.1
2017-Oct-08 06:54N 41°27' W 071°23'1212.0
2017-Oct-08 05:55N 41°39' W 071°19'410.8
2017-Oct-08 05:30N 41°43' W 071°20'4 9.1
2017-Oct-08 05:00N 41°47' W 071°23'1 2.4
2017-Oct-08 04:29N 41°48' W 071°24'  

Dump ship's entire track history